sensor_id;sensor_type;location;lat;lon;timestamp;P1;durP1;ratioP1;P2;durP2;ratioP2
45905;SDS011;31619;49.008;12.106;2023-02-28T00:02:19;4.63;;;4.10;;
45905;SDS011;31619;49.008;12.106;2023-02-28T00:04:45;7.60;;;4.20;;
45905;SDS011;31619;49.008;12.106;2023-02-28T00:07:17;4.47;;;4.07;;
45905;SDS011;31619;49.008;12.106;2023-02-28T00:09:43;5.27;;;4.13;;
45905;SDS011;31619;49.008;12.106;2023-02-28T00:12:09;6.97;;;4.20;;
45905;SDS011;31619;49.008;12.106;2023-02-28T00:14:35;5.17;;;4.00;;
45905;SDS011;31619;49.008;12.106;2023-02-28T00:17:01;7.23;;;4.80;;
45905;SDS011;31619;49.008;12.106;2023-02-28T00:19:27;5.33;;;4.30;;
45905;SDS011;31619;49.008;12.106;2023-02-28T00:21:52;7.67;;;4.90;;
45905;SDS011;31619;49.008;12.106;2023-02-28T00:24:18;5.30;;;4.80;;
45905;SDS011;31619;49.008;12.106;2023-02-28T00:26:43;5.30;;;4.67;;
45905;SDS011;31619;49.008;12.106;2023-02-28T00:29:09;4.70;;;4.27;;
45905;SDS011;31619;49.008;12.106;2023-02-28T00:31:35;5.10;;;4.70;;
45905;SDS011;31619;49.008;12.106;2023-02-28T00:34:00;5.00;;;4.50;;
45905;SDS011;31619;49.008;12.106;2023-02-28T00:36:26;5.27;;;4.70;;
45905;SDS011;31619;49.008;12.106;2023-02-28T00:38:52;5.47;;;4.97;;
45905;SDS011;31619;49.008;12.106;2023-02-28T00:41:17;5.20;;;4.70;;
45905;SDS011;31619;49.008;12.106;2023-02-28T00:43:43;6.83;;;4.13;;
45905;SDS011;31619;49.008;12.106;2023-02-28T00:46:09;4.83;;;4.30;;
45905;SDS011;31619;49.008;12.106;2023-02-28T00:48:34;4.97;;;4.60;;
45905;SDS011;31619;49.008;12.106;2023-02-28T00:51:00;4.27;;;3.97;;
45905;SDS011;31619;49.008;12.106;2023-02-28T00:53:27;4.40;;;4.00;;
45905;SDS011;31619;49.008;12.106;2023-02-28T00:55:53;4.93;;;4.40;;
45905;SDS011;31619;49.008;12.106;2023-02-28T00:58:18;5.43;;;4.63;;
45905;SDS011;31619;49.008;12.106;2023-02-28T01:00:44;7.13;;;4.70;;
45905;SDS011;31619;49.008;12.106;2023-02-28T01:03:13;5.60;;;4.80;;
45905;SDS011;31619;49.008;12.106;2023-02-28T01:05:40;5.20;;;4.80;;
45905;SDS011;31619;49.008;12.106;2023-02-28T01:08:06;5.20;;;4.70;;
45905;SDS011;31619;49.008;12.106;2023-02-28T01:10:32;6.00;;;4.23;;
45905;SDS011;31619;49.008;12.106;2023-02-28T01:12:58;7.50;;;5.77;;
45905;SDS011;31619;49.008;12.106;2023-02-28T01:15:24;8.33;;;7.20;;
45905;SDS011;31619;49.008;12.106;2023-02-28T01:17:50;6.07;;;5.40;;
45905;SDS011;31619;49.008;12.106;2023-02-28T01:20:15;5.63;;;5.13;;
45905;SDS011;31619;49.008;12.106;2023-02-28T01:22:41;8.20;;;5.57;;
45905;SDS011;31619;49.008;12.106;2023-02-28T01:25:07;5.03;;;4.53;;
45905;SDS011;31619;49.008;12.106;2023-02-28T01:27:33;5.60;;;5.10;;
45905;SDS011;31619;49.008;12.106;2023-02-28T01:29:58;5.37;;;4.90;;
45905;SDS011;31619;49.008;12.106;2023-02-28T01:32:24;6.43;;;4.97;;
45905;SDS011;31619;49.008;12.106;2023-02-28T01:34:50;6.33;;;5.00;;
45905;SDS011;31619;49.008;12.106;2023-02-28T01:37:15;6.30;;;5.27;;
45905;SDS011;31619;49.008;12.106;2023-02-28T01:39:41;6.60;;;5.33;;
45905;SDS011;31619;49.008;12.106;2023-02-28T01:42:08;5.30;;;4.80;;
45905;SDS011;31619;49.008;12.106;2023-02-28T01:47:18;7.23;;;5.30;;
45905;SDS011;31619;49.008;12.106;2023-02-28T01:49:45;5.20;;;4.70;;
45905;SDS011;31619;49.008;12.106;2023-02-28T01:52:11;5.87;;;5.17;;
45905;SDS011;31619;49.008;12.106;2023-02-28T01:54:43;6.30;;;5.03;;
45905;SDS011;31619;49.008;12.106;2023-02-28T01:57:12;6.40;;;5.27;;
45905;SDS011;31619;49.008;12.106;2023-02-28T02:02:17;6.67;;;5.27;;
45905;SDS011;31619;49.008;12.106;2023-02-28T02:04:53;6.00;;;5.40;;
45905;SDS011;31619;49.008;12.106;2023-02-28T02:07:26;5.80;;;5.20;;
45905;SDS011;31619;49.008;12.106;2023-02-28T02:10:01;7.33;;;6.17;;
45905;SDS011;31619;49.008;12.106;2023-02-28T02:18:16;6.43;;;5.50;;
45905;SDS011;31619;49.008;12.106;2023-02-28T02:20:51;6.60;;;6.00;;
45905;SDS011;31619;49.008;12.106;2023-02-28T02:29:35;5.87;;;5.27;;
45905;SDS011;31619;49.008;12.106;2023-02-28T02:35:12;5.83;;;5.33;;
45905;SDS011;31619;49.008;12.106;2023-02-28T02:41:16;9.33;;;5.90;;
45905;SDS011;31619;49.008;12.106;2023-02-28T02:43:56;6.03;;;5.43;;
45905;SDS011;31619;49.008;12.106;2023-02-28T02:46:31;5.80;;;5.30;;
45905;SDS011;31619;49.008;12.106;2023-02-28T02:49:00;8.90;;;5.60;;
45905;SDS011;31619;49.008;12.106;2023-02-28T02:51:29;5.70;;;5.20;;
45905;SDS011;31619;49.008;12.106;2023-02-28T02:54:00;6.43;;;5.83;;
45905;SDS011;31619;49.008;12.106;2023-02-28T02:56:36;6.10;;;5.50;;
45905;SDS011;31619;49.008;12.106;2023-02-28T02:59:07;6.43;;;5.33;;
45905;SDS011;31619;49.008;12.106;2023-02-28T03:01:36;6.70;;;5.63;;
45905;SDS011;31619;49.008;12.106;2023-02-28T03:04:06;6.23;;;5.33;;
45905;SDS011;31619;49.008;12.106;2023-02-28T03:06:34;6.40;;;5.47;;
45905;SDS011;31619;49.008;12.106;2023-02-28T03:09:00;6.03;;;5.50;;
45905;SDS011;31619;49.008;12.106;2023-02-28T03:11:26;6.13;;;5.60;;
45905;SDS011;31619;49.008;12.106;2023-02-28T03:13:55;6.63;;;5.60;;
45905;SDS011;31619;49.008;12.106;2023-02-28T03:16:38;6.27;;;5.67;;
45905;SDS011;31619;49.008;12.106;2023-02-28T03:19:51;6.60;;;5.97;;
45905;SDS011;31619;49.008;12.106;2023-02-28T03:25:38;6.40;;;5.57;;
45905;SDS011;31619;49.008;12.106;2023-02-28T03:31:08;7.27;;;6.00;;
45905;SDS011;31619;49.008;12.106;2023-02-28T03:33:45;7.67;;;5.53;;
45905;SDS011;31619;49.008;12.106;2023-02-28T03:36:20;7.13;;;6.43;;
45905;SDS011;31619;49.008;12.106;2023-02-28T03:39:06;6.33;;;5.70;;
45905;SDS011;31619;49.008;12.106;2023-02-28T03:41:38;7.83;;;6.77;;
45905;SDS011;31619;49.008;12.106;2023-02-28T03:44:18;7.60;;;5.70;;
45905;SDS011;31619;49.008;12.106;2023-02-28T03:49:36;6.33;;;5.70;;
45905;SDS011;31619;49.008;12.106;2023-02-28T03:52:10;7.03;;;6.33;;
45905;SDS011;31619;49.008;12.106;2023-02-28T03:54:39;7.27;;;6.57;;
45905;SDS011;31619;49.008;12.106;2023-02-28T03:57:23;7.30;;;6.20;;
45905;SDS011;31619;49.008;12.106;2023-02-28T04:00:04;7.23;;;6.53;;
45905;SDS011;31619;49.008;12.106;2023-02-28T04:02:53;6.70;;;6.00;;
45905;SDS011;31619;49.008;12.106;2023-02-28T04:05:20;7.37;;;6.63;;
45905;SDS011;31619;49.008;12.106;2023-02-28T04:07:46;7.23;;;6.53;;
45905;SDS011;31619;49.008;12.106;2023-02-28T04:10:13;10.00;;;6.97;;
45905;SDS011;31619;49.008;12.106;2023-02-28T04:12:40;8.07;;;6.70;;
45905;SDS011;31619;49.008;12.106;2023-02-28T04:15:06;9.27;;;7.00;;
45905;SDS011;31619;49.008;12.106;2023-02-28T04:17:32;7.03;;;6.30;;
45905;SDS011;31619;49.008;12.106;2023-02-28T04:19:58;9.40;;;7.20;;
45905;SDS011;31619;49.008;12.106;2023-02-28T04:22:23;8.60;;;6.53;;
45905;SDS011;31619;49.008;12.106;2023-02-28T04:24:51;8.23;;;6.60;;
45905;SDS011;31619;49.008;12.106;2023-02-28T04:27:18;7.73;;;6.93;;
45905;SDS011;31619;49.008;12.106;2023-02-28T04:29:44;8.57;;;7.10;;
45905;SDS011;31619;49.008;12.106;2023-02-28T04:32:10;11.07;;;7.87;;
45905;SDS011;31619;49.008;12.106;2023-02-28T04:34:36;8.07;;;7.10;;
45905;SDS011;31619;49.008;12.106;2023-02-28T04:37:02;8.87;;;6.80;;
45905;SDS011;31619;49.008;12.106;2023-02-28T04:39:28;10.17;;;7.37;;
45905;SDS011;31619;49.008;12.106;2023-02-28T04:41:54;7.43;;;5.90;;
45905;SDS011;31619;49.008;12.106;2023-02-28T04:44:21;8.80;;;6.60;;
45905;SDS011;31619;49.008;12.106;2023-02-28T04:46:47;7.43;;;6.17;;
45905;SDS011;31619;49.008;12.106;2023-02-28T04:49:13;7.13;;;6.43;;
45905;SDS011;31619;49.008;12.106;2023-02-28T04:51:40;9.77;;;7.40;;
45905;SDS011;31619;49.008;12.106;2023-02-28T04:54:06;8.40;;;7.40;;
45905;SDS011;31619;49.008;12.106;2023-02-28T04:56:32;7.67;;;6.87;;
45905;SDS011;31619;49.008;12.106;2023-02-28T04:58:58;10.20;;;7.43;;
45905;SDS011;31619;49.008;12.106;2023-02-28T05:01:24;7.67;;;6.90;;
45905;SDS011;31619;49.008;12.106;2023-02-28T05:03:52;9.57;;;7.27;;
45905;SDS011;31619;49.008;12.106;2023-02-28T05:06:19;10.70;;;7.13;;
45905;SDS011;31619;49.008;12.106;2023-02-28T05:08:48;8.63;;;7.30;;
45905;SDS011;31619;49.008;12.106;2023-02-28T05:11:24;8.47;;;7.10;;
45905;SDS011;31619;49.008;12.106;2023-02-28T05:13:51;9.63;;;7.70;;
45905;SDS011;31619;49.008;12.106;2023-02-28T05:16:18;7.67;;;6.87;;
45905;SDS011;31619;49.008;12.106;2023-02-28T05:18:44;8.37;;;7.13;;
45905;SDS011;31619;49.008;12.106;2023-02-28T05:21:22;8.23;;;7.23;;
45905;SDS011;31619;49.008;12.106;2023-02-28T05:23:51;8.27;;;7.37;;
45905;SDS011;31619;49.008;12.106;2023-02-28T05:26:18;9.10;;;7.03;;
45905;SDS011;31619;49.008;12.106;2023-02-28T05:28:44;8.50;;;7.47;;
45905;SDS011;31619;49.008;12.106;2023-02-28T05:31:12;7.70;;;6.67;;
45905;SDS011;31619;49.008;12.106;2023-02-28T05:33:39;8.10;;;7.40;;
45905;SDS011;31619;49.008;12.106;2023-02-28T05:36:04;10.40;;;7.53;;
45905;SDS011;31619;49.008;12.106;2023-02-28T05:38:30;9.80;;;6.93;;
45905;SDS011;31619;49.008;12.106;2023-02-28T05:40:56;7.90;;;7.10;;
45905;SDS011;31619;49.008;12.106;2023-02-28T05:43:22;8.70;;;7.57;;
45905;SDS011;31619;49.008;12.106;2023-02-28T05:45:48;8.53;;;6.97;;
45905;SDS011;31619;49.008;12.106;2023-02-28T05:48:14;10.20;;;7.40;;
45905;SDS011;31619;49.008;12.106;2023-02-28T05:50:39;7.40;;;6.70;;
45905;SDS011;31619;49.008;12.106;2023-02-28T05:53:05;10.47;;;7.53;;
45905;SDS011;31619;49.008;12.106;2023-02-28T05:55:31;8.37;;;7.30;;
45905;SDS011;31619;49.008;12.106;2023-02-28T05:57:56;7.33;;;6.63;;
45905;SDS011;31619;49.008;12.106;2023-02-28T06:00:22;8.23;;;7.27;;
45905;SDS011;31619;49.008;12.106;2023-02-28T06:02:48;8.47;;;6.93;;
45905;SDS011;31619;49.008;12.106;2023-02-28T06:05:15;10.07;;;7.07;;
45905;SDS011;31619;49.008;12.106;2023-02-28T06:07:42;8.90;;;7.00;;
45905;SDS011;31619;49.008;12.106;2023-02-28T06:10:09;8.30;;;6.90;;
45905;SDS011;31619;49.008;12.106;2023-02-28T06:12:36;7.03;;;6.33;;
45905;SDS011;31619;49.008;12.106;2023-02-28T06:15:02;7.67;;;6.80;;
45905;SDS011;31619;49.008;12.106;2023-02-28T06:17:28;7.67;;;6.90;;
45905;SDS011;31619;49.008;12.106;2023-02-28T06:19:54;9.33;;;7.77;;
45905;SDS011;31619;49.008;12.106;2023-02-28T06:22:19;9.90;;;7.10;;
45905;SDS011;31619;49.008;12.106;2023-02-28T06:24:45;9.03;;;7.43;;
45905;SDS011;31619;49.008;12.106;2023-02-28T06:27:10;9.20;;;7.17;;
45905;SDS011;31619;49.008;12.106;2023-02-28T06:29:36;8.63;;;7.70;;
45905;SDS011;31619;49.008;12.106;2023-02-28T06:32:04;6.83;;;6.13;;
45905;SDS011;31619;49.008;12.106;2023-02-28T06:34:30;8.43;;;7.27;;
45905;SDS011;31619;49.008;12.106;2023-02-28T06:36:58;8.53;;;6.87;;
45905;SDS011;31619;49.008;12.106;2023-02-28T06:39:27;10.07;;;7.83;;
45905;SDS011;31619;49.008;12.106;2023-02-28T06:41:55;8.90;;;6.77;;
45905;SDS011;31619;49.008;12.106;2023-02-28T06:44:21;7.97;;;7.20;;
45905;SDS011;31619;49.008;12.106;2023-02-28T06:46:48;8.87;;;6.77;;
45905;SDS011;31619;49.008;12.106;2023-02-28T06:49:13;9.17;;;6.50;;
45905;SDS011;31619;49.008;12.106;2023-02-28T06:51:40;13.20;;;7.40;;
45905;SDS011;31619;49.008;12.106;2023-02-28T06:54:10;7.50;;;6.67;;
45905;SDS011;31619;49.008;12.106;2023-02-28T06:56:36;8.07;;;6.90;;
45905;SDS011;31619;49.008;12.106;2023-02-28T06:59:04;8.97;;;7.10;;
45905;SDS011;31619;49.008;12.106;2023-02-28T07:01:29;8.23;;;7.33;;
45905;SDS011;31619;49.008;12.106;2023-02-28T07:03:57;7.73;;;6.83;;
45905;SDS011;31619;49.008;12.106;2023-02-28T07:06:23;13.47;;;7.40;;
45905;SDS011;31619;49.008;12.106;2023-02-28T07:08:49;10.67;;;7.10;;
45905;SDS011;31619;49.008;12.106;2023-02-28T07:11:17;8.13;;;6.63;;
45905;SDS011;31619;49.008;12.106;2023-02-28T07:13:43;7.60;;;5.93;;
45905;SDS011;31619;49.008;12.106;2023-02-28T07:16:11;6.50;;;5.90;;
45905;SDS011;31619;49.008;12.106;2023-02-28T07:18:37;7.10;;;6.40;;
45905;SDS011;31619;49.008;12.106;2023-02-28T07:21:03;8.53;;;6.77;;
45905;SDS011;31619;49.008;12.106;2023-02-28T07:23:31;9.87;;;6.63;;
45905;SDS011;31619;49.008;12.106;2023-02-28T07:25:57;10.67;;;6.63;;
45905;SDS011;31619;49.008;12.106;2023-02-28T07:28:23;7.97;;;7.17;;
45905;SDS011;31619;49.008;12.106;2023-02-28T07:30:48;8.63;;;6.33;;
45905;SDS011;31619;49.008;12.106;2023-02-28T07:33:14;7.90;;;6.50;;
45905;SDS011;31619;49.008;12.106;2023-02-28T07:35:40;7.27;;;6.57;;
45905;SDS011;31619;49.008;12.106;2023-02-28T07:38:06;10.50;;;6.80;;
45905;SDS011;31619;49.008;12.106;2023-02-28T07:40:32;8.37;;;6.27;;
45905;SDS011;31619;49.008;12.106;2023-02-28T07:42:59;8.50;;;6.27;;
45905;SDS011;31619;49.008;12.106;2023-02-28T07:45:26;8.80;;;5.60;;
45905;SDS011;31619;49.008;12.106;2023-02-28T07:47:53;7.77;;;6.30;;
45905;SDS011;31619;49.008;12.106;2023-02-28T07:50:19;6.67;;;5.97;;
45905;SDS011;31619;49.008;12.106;2023-02-28T07:52:45;6.80;;;5.63;;
45905;SDS011;31619;49.008;12.106;2023-02-28T07:55:10;7.40;;;6.37;;
45905;SDS011;31619;49.008;12.106;2023-02-28T07:57:36;11.43;;;6.70;;
45905;SDS011;31619;49.008;12.106;2023-02-28T08:00:05;7.37;;;5.93;;
45905;SDS011;31619;49.008;12.106;2023-02-28T08:02:34;8.70;;;6.47;;
45905;SDS011;31619;49.008;12.106;2023-02-28T08:05:00;7.10;;;6.17;;
45905;SDS011;31619;49.008;12.106;2023-02-28T08:07:26;7.40;;;6.70;;
45905;SDS011;31619;49.008;12.106;2023-02-28T08:09:51;7.77;;;6.50;;
45905;SDS011;31619;49.008;12.106;2023-02-28T08:12:17;7.37;;;6.53;;
45905;SDS011;31619;49.008;12.106;2023-02-28T08:14:43;7.90;;;6.67;;
45905;SDS011;31619;49.008;12.106;2023-02-28T08:17:09;8.80;;;6.80;;
45905;SDS011;31619;49.008;12.106;2023-02-28T08:19:35;8.17;;;6.03;;
45905;SDS011;31619;49.008;12.106;2023-02-28T08:22:00;8.00;;;6.83;;
45905;SDS011;31619;49.008;12.106;2023-02-28T08:24:26;9.27;;;7.00;;
45905;SDS011;31619;49.008;12.106;2023-02-28T08:26:52;11.53;;;7.27;;
45905;SDS011;31619;49.008;12.106;2023-02-28T08:29:17;6.80;;;6.10;;
45905;SDS011;31619;49.008;12.106;2023-02-28T08:31:43;8.67;;;6.30;;
45905;SDS011;31619;49.008;12.106;2023-02-28T08:34:09;8.90;;;7.23;;
45905;SDS011;31619;49.008;12.106;2023-02-28T08:36:40;8.03;;;5.83;;
45905;SDS011;31619;49.008;12.106;2023-02-28T08:39:07;9.73;;;6.87;;
45905;SDS011;31619;49.008;12.106;2023-02-28T08:41:33;9.97;;;6.93;;
45905;SDS011;31619;49.008;12.106;2023-02-28T08:43:59;7.87;;;6.67;;
45905;SDS011;31619;49.008;12.106;2023-02-28T08:46:25;13.70;;;6.50;;
45905;SDS011;31619;49.008;12.106;2023-02-28T08:48:51;10.80;;;7.17;;
45905;SDS011;31619;49.008;12.106;2023-02-28T08:51:18;7.40;;;6.17;;
45905;SDS011;31619;49.008;12.106;2023-02-28T08:53:51;9.33;;;6.73;;
45905;SDS011;31619;49.008;12.106;2023-02-28T08:56:17;8.77;;;7.03;;
45905;SDS011;31619;49.008;12.106;2023-02-28T08:58:43;11.10;;;6.83;;
45905;SDS011;31619;49.008;12.106;2023-02-28T09:01:11;7.30;;;6.27;;
45905;SDS011;31619;49.008;12.106;2023-02-28T09:03:39;8.40;;;6.90;;
45905;SDS011;31619;49.008;12.106;2023-02-28T09:06:06;9.55;;;7.22;;
45905;SDS011;31619;49.008;12.106;2023-02-28T09:08:33;7.70;;;6.88;;
45905;SDS011;31619;49.008;12.106;2023-02-28T09:10:59;8.90;;;6.40;;
45905;SDS011;31619;49.008;12.106;2023-02-28T09:13:25;12.10;;;7.43;;
45905;SDS011;31619;49.008;12.106;2023-02-28T09:15:51;8.27;;;6.77;;
45905;SDS011;31619;49.008;12.106;2023-02-28T09:18:17;10.82;;;7.65;;
45905;SDS011;31619;49.008;12.106;2023-02-28T09:20:43;8.90;;;7.25;;
45905;SDS011;31619;49.008;12.106;2023-02-28T09:23:09;8.15;;;7.35;;
45905;SDS011;31619;49.008;12.106;2023-02-28T09:25:37;7.97;;;7.18;;
45905;SDS011;31619;49.008;12.106;2023-02-28T09:28:03;8.57;;;6.70;;
45905;SDS011;31619;49.008;12.106;2023-02-28T09:30:29;8.02;;;6.50;;
45905;SDS011;31619;49.008;12.106;2023-02-28T09:32:55;7.18;;;6.47;;
45905;SDS011;31619;49.008;12.106;2023-02-28T09:35:21;8.60;;;6.47;;
45905;SDS011;31619;49.008;12.106;2023-02-28T09:37:48;7.55;;;6.85;;
45905;SDS011;31619;49.008;12.106;2023-02-28T09:40:15;7.70;;;6.40;;
45905;SDS011;31619;49.008;12.106;2023-02-28T09:42:43;6.35;;;5.45;;
45905;SDS011;31619;49.008;12.106;2023-02-28T09:47:49;6.45;;;5.85;;
45905;SDS011;31619;49.008;12.106;2023-02-28T09:50:30;6.45;;;5.85;;
45905;SDS011;31619;49.008;12.106;2023-02-28T09:53:26;5.93;;;5.43;;
45905;SDS011;31619;49.008;12.106;2023-02-28T09:56:12;6.90;;;5.70;;
45905;SDS011;31619;49.008;12.106;2023-02-28T09:58:52;7.35;;;5.75;;
45905;SDS011;31619;49.008;12.106;2023-02-28T10:01:34;5.82;;;5.30;;
45905;SDS011;31619;49.008;12.106;2023-02-28T10:07:53;6.55;;;5.95;;
45905;SDS011;31619;49.008;12.106;2023-02-28T10:10:18;6.72;;;6.10;;
45905;SDS011;31619;49.008;12.106;2023-02-28T10:12:54;6.18;;;5.68;;
45905;SDS011;31619;49.008;12.106;2023-02-28T10:15:24;6.45;;;5.82;;
45905;SDS011;31619;49.008;12.106;2023-02-28T10:18:00;9.15;;;6.05;;
45905;SDS011;31619;49.008;12.106;2023-02-28T10:20:35;7.13;;;6.15;;
45905;SDS011;31619;49.008;12.106;2023-02-28T10:23:09;7.03;;;5.95;;
45905;SDS011;31619;49.008;12.106;2023-02-28T10:25:55;5.90;;;5.40;;
45905;SDS011;31619;49.008;12.106;2023-02-28T10:28:24;6.03;;;5.53;;
45905;SDS011;31619;49.008;12.106;2023-02-28T10:30:55;5.88;;;5.45;;
45905;SDS011;31619;49.008;12.106;2023-02-28T10:36:02;6.45;;;5.90;;
45905;SDS011;31619;49.008;12.106;2023-02-28T10:38:36;6.97;;;6.35;;
45905;SDS011;31619;49.008;12.106;2023-02-28T10:41:04;6.57;;;5.97;;
45905;SDS011;31619;49.008;12.106;2023-02-28T10:43:30;6.55;;;5.95;;
45905;SDS011;31619;49.008;12.106;2023-02-28T10:45:57;6.28;;;5.78;;
45905;SDS011;31619;49.008;12.106;2023-02-28T10:48:28;6.25;;;5.75;;
45905;SDS011;31619;49.008;12.106;2023-02-28T10:50:59;5.88;;;5.28;;
45905;SDS011;31619;49.008;12.106;2023-02-28T10:53:28;6.35;;;5.75;;
45905;SDS011;31619;49.008;12.106;2023-02-28T10:55:58;5.50;;;5.00;;
45905;SDS011;31619;49.008;12.106;2023-02-28T10:58:25;5.40;;;4.97;;
45905;SDS011;31619;49.008;12.106;2023-02-28T11:00:53;6.97;;;5.88;;
45905;SDS011;31619;49.008;12.106;2023-02-28T11:03:23;5.80;;;5.38;;
45905;SDS011;31619;49.008;12.106;2023-02-28T11:05:57;7.63;;;5.93;;
45905;SDS011;31619;49.008;12.106;2023-02-28T11:08:23;6.60;;;6.00;;
45905;SDS011;31619;49.008;12.106;2023-02-28T11:10:59;6.18;;;5.68;;
45905;SDS011;31619;49.008;12.106;2023-02-28T11:13:35;6.00;;;5.43;;
45905;SDS011;31619;49.008;12.106;2023-02-28T11:16:05;7.07;;;6.20;;
45905;SDS011;31619;49.008;12.106;2023-02-28T11:18:37;6.00;;;5.50;;
45905;SDS011;31619;49.008;12.106;2023-02-28T11:21:07;6.10;;;5.55;;
45905;SDS011;31619;49.008;12.106;2023-02-28T11:23:35;5.57;;;5.18;;
45905;SDS011;31619;49.008;12.106;2023-02-28T11:26:05;6.32;;;5.72;;
45905;SDS011;31619;49.008;12.106;2023-02-28T11:28:41;6.05;;;5.53;;
45905;SDS011;31619;49.008;12.106;2023-02-28T11:36:11;6.30;;;5.70;;
45905;SDS011;31619;49.008;12.106;2023-02-28T11:38:43;6.38;;;5.78;;
45905;SDS011;31619;49.008;12.106;2023-02-28T11:41:28;6.70;;;6.10;;
45905;SDS011;31619;49.008;12.106;2023-02-28T11:44:27;7.13;;;6.53;;
45905;SDS011;31619;49.008;12.106;2023-02-28T11:47:01;6.93;;;6.32;;
45905;SDS011;31619;49.008;12.106;2023-02-28T11:52:20;6.47;;;5.90;;
45905;SDS011;31619;49.008;12.106;2023-02-28T11:55:08;7.05;;;6.38;;
45905;SDS011;31619;49.008;12.106;2023-02-28T12:19:21;5.93;;;5.47;;
45905;SDS011;31619;49.008;12.106;2023-02-28T12:27:24;7.10;;;6.53;;
45905;SDS011;31619;49.008;12.106;2023-02-28T12:29:58;6.65;;;6.15;;
45905;SDS011;31619;49.008;12.106;2023-02-28T12:38:41;7.00;;;6.40;;
45905;SDS011;31619;49.008;12.106;2023-02-28T12:41:12;7.18;;;6.57;;
45905;SDS011;31619;49.008;12.106;2023-02-28T12:46:49;6.88;;;6.30;;
45905;SDS011;31619;49.008;12.106;2023-02-28T12:49:19;7.15;;;6.45;;
45905;SDS011;31619;49.008;12.106;2023-02-28T12:51:50;6.82;;;6.25;;
45905;SDS011;31619;49.008;12.106;2023-02-28T12:54:32;6.55;;;5.95;;
45905;SDS011;31619;49.008;12.106;2023-02-28T13:00:08;6.78;;;6.22;;
45905;SDS011;31619;49.008;12.106;2023-02-28T13:08:03;7.93;;;6.15;;
45905;SDS011;31619;49.008;12.106;2023-02-28T13:10:46;6.70;;;6.00;;
45905;SDS011;31619;49.008;12.106;2023-02-28T13:13:16;6.60;;;6.05;;
45905;SDS011;31619;49.008;12.106;2023-02-28T13:18:39;7.82;;;6.18;;
45905;SDS011;31619;49.008;12.106;2023-02-28T13:21:10;7.85;;;6.35;;
45905;SDS011;31619;49.008;12.106;2023-02-28T13:26:21;6.80;;;6.18;;
45905;SDS011;31619;49.008;12.106;2023-02-28T13:28:57;6.82;;;6.22;;
45905;SDS011;31619;49.008;12.106;2023-02-28T13:31:24;6.55;;;5.93;;
45905;SDS011;31619;49.008;12.106;2023-02-28T13:38:54;6.78;;;6.18;;
45905;SDS011;31619;49.008;12.106;2023-02-28T13:44:10;7.40;;;6.68;;
45905;SDS011;31619;49.008;12.106;2023-02-28T13:51:49;6.45;;;5.88;;
45905;SDS011;31619;49.008;12.106;2023-02-28T13:54:23;7.07;;;6.38;;
45905;SDS011;31619;49.008;12.106;2023-02-28T14:02:36;7.38;;;5.80;;
45905;SDS011;31619;49.008;12.106;2023-02-28T14:05:15;6.88;;;5.97;;
45905;SDS011;31619;49.008;12.106;2023-02-28T14:07:58;6.53;;;6.03;;
45905;SDS011;31619;49.008;12.106;2023-02-28T14:18:23;7.30;;;6.18;;
45905;SDS011;31619;49.008;12.106;2023-02-28T14:21:08;7.00;;;6.32;;
45905;SDS011;31619;49.008;12.106;2023-02-28T14:27:02;6.80;;;6.30;;
45905;SDS011;31619;49.008;12.106;2023-02-28T14:34:51;5.78;;;5.35;;
45905;SDS011;31619;49.008;12.106;2023-02-28T14:37:24;7.00;;;6.40;;
45905;SDS011;31619;49.008;12.106;2023-02-28T14:39:55;7.45;;;6.75;;
45905;SDS011;31619;49.008;12.106;2023-02-28T14:42:39;8.77;;;7.90;;
45905;SDS011;31619;49.008;12.106;2023-02-28T14:45:17;7.13;;;6.53;;
45905;SDS011;31619;49.008;12.106;2023-02-28T14:47:44;6.93;;;6.25;;
45905;SDS011;31619;49.008;12.106;2023-02-28T14:53:15;7.68;;;6.93;;
45905;SDS011;31619;49.008;12.106;2023-02-28T14:55:44;6.93;;;6.22;;
45905;SDS011;31619;49.008;12.106;2023-02-28T15:00:48;6.40;;;5.85;;
45905;SDS011;31619;49.008;12.106;2023-02-28T15:03:19;6.47;;;5.93;;
45905;SDS011;31619;49.008;12.106;2023-02-28T15:05:51;8.93;;;5.90;;
45905;SDS011;31619;49.008;12.106;2023-02-28T15:08:18;7.35;;;5.82;;
45905;SDS011;31619;49.008;12.106;2023-02-28T15:10:58;6.25;;;5.75;;
45905;SDS011;31619;49.008;12.106;2023-02-28T15:16:18;7.13;;;6.45;;
45905;SDS011;31619;49.008;12.106;2023-02-28T15:18:51;7.13;;;6.50;;
45905;SDS011;31619;49.008;12.106;2023-02-28T15:21:38;7.60;;;6.82;;
45905;SDS011;31619;49.008;12.106;2023-02-28T15:27:07;6.95;;;6.28;;
45905;SDS011;31619;49.008;12.106;2023-02-28T15:29:48;7.18;;;6.47;;
45905;SDS011;31619;49.008;12.106;2023-02-28T15:32:29;6.97;;;6.38;;
45905;SDS011;31619;49.008;12.106;2023-02-28T15:35:18;7.35;;;6.68;;
45905;SDS011;31619;49.008;12.106;2023-02-28T15:37:54;8.43;;;7.60;;
45905;SDS011;31619;49.008;12.106;2023-02-28T15:40:26;8.52;;;7.32;;
45905;SDS011;31619;49.008;12.106;2023-02-28T15:43:00;8.25;;;7.53;;
45905;SDS011;31619;49.008;12.106;2023-02-28T15:45:34;8.13;;;7.25;;
45905;SDS011;31619;49.008;12.106;2023-02-28T15:48:13;8.25;;;7.55;;
45905;SDS011;31619;49.008;12.106;2023-02-28T15:50:42;7.68;;;6.97;;
45905;SDS011;31619;49.008;12.106;2023-02-28T15:53:15;8.57;;;7.18;;
45905;SDS011;31619;49.008;12.106;2023-02-28T15:55:44;8.68;;;7.55;;
45905;SDS011;31619;49.008;12.106;2023-02-28T15:58:16;8.60;;;7.50;;
45905;SDS011;31619;49.008;12.106;2023-02-28T16:00:44;11.45;;;7.95;;
45905;SDS011;31619;49.008;12.106;2023-02-28T16:03:24;8.75;;;7.85;;
45905;SDS011;31619;49.008;12.106;2023-02-28T16:06:17;9.25;;;8.30;;
45905;SDS011;31619;49.008;12.106;2023-02-28T16:08:57;9.15;;;8.23;;
45905;SDS011;31619;49.008;12.106;2023-02-28T16:11:23;12.60;;;8.35;;
45905;SDS011;31619;49.008;12.106;2023-02-28T16:13:49;8.90;;;7.97;;
45905;SDS011;31619;49.008;12.106;2023-02-28T16:16:20;10.60;;;8.57;;
45905;SDS011;31619;49.008;12.106;2023-02-28T16:18:49;10.25;;;7.97;;
45905;SDS011;31619;49.008;12.106;2023-02-28T16:21:15;8.55;;;7.70;;
45905;SDS011;31619;49.008;12.106;2023-02-28T16:23:41;8.85;;;7.95;;
45905;SDS011;31619;49.008;12.106;2023-02-28T16:26:06;9.82;;;8.55;;
45905;SDS011;31619;49.008;12.106;2023-02-28T16:28:34;9.50;;;8.50;;
45905;SDS011;31619;49.008;12.106;2023-02-28T16:31:02;10.40;;;9.15;;
45905;SDS011;31619;49.008;12.106;2023-02-28T16:33:30;10.18;;;9.00;;
45905;SDS011;31619;49.008;12.106;2023-02-28T16:35:56;10.05;;;8.05;;
45905;SDS011;31619;49.008;12.106;2023-02-28T16:38:21;9.18;;;8.23;;
45905;SDS011;31619;49.008;12.106;2023-02-28T16:40:49;12.73;;;9.23;;
45905;SDS011;31619;49.008;12.106;2023-02-28T16:43:17;13.77;;;9.73;;
45905;SDS011;31619;49.008;12.106;2023-02-28T16:45:47;12.60;;;10.32;;
45905;SDS011;31619;49.008;12.106;2023-02-28T16:48:13;12.20;;;9.48;;
45905;SDS011;31619;49.008;12.106;2023-02-28T16:50:41;11.05;;;9.32;;
45905;SDS011;31619;49.008;12.106;2023-02-28T16:53:09;10.43;;;9.32;;
45905;SDS011;31619;49.008;12.106;2023-02-28T16:55:35;13.07;;;10.02;;
45905;SDS011;31619;49.008;12.106;2023-02-28T16:58:01;10.63;;;9.50;;
45905;SDS011;31619;49.008;12.106;2023-02-28T17:00:28;10.95;;;9.50;;
45905;SDS011;31619;49.008;12.106;2023-02-28T17:02:56;11.43;;;9.50;;
45905;SDS011;31619;49.008;12.106;2023-02-28T17:05:22;12.13;;;9.05;;
45905;SDS011;31619;49.008;12.106;2023-02-28T17:07:48;23.23;;;11.85;;
45905;SDS011;31619;49.008;12.106;2023-02-28T17:10:21;11.45;;;10.27;;
45905;SDS011;31619;49.008;12.106;2023-02-28T17:12:48;11.77;;;10.02;;
45905;SDS011;31619;49.008;12.106;2023-02-28T17:15:15;11.50;;;9.25;;